Time;durP1;ratioP1;P1;durP2;ratioP2;P2;SDS_P1;SDS_P2;PMS_P1;PMS_P2;Temp;Humidity;BMP_temperature;BMP_pressure;BME280_temperature;BME280_humidity;BME280_pressure;Samples;Min_cycle;Max_cycle;Signal;HPM_P1;HPM_P2
2020/12/10 03:46:58;;;;;;;12.23;7.95;;;3.40;99.90;;;;;;5559749;23;89408;-80
2020/12/10 03:49:23;;;;;;;12.68;7.07;;;3.50;99.90;;;;;;4893227;28;88460;-80
2020/12/10 03:51:49;;;;;;;12.70;9.02;;;;;;;;;;4892446;28;87104;-80
2020/12/10 03:54:15;;;;;;;11.13;7.22;;;3.50;99.90;;;;;;4891581;28;86834;-80
2020/12/10 03:56:41;;;;;;;12.20;7.75;;;3.50;99.90;;;;;;4892039;28;85891;-80
2020/12/10 03:59:07;;;;;;;10.23;7.63;;;4.20;99.90;;;;;;4901123;28;87150;-80
2020/12/10 04:01:33;;;;;;;12.23;7.65;;;3.50;99.90;;;;;;4910755;28;86997;-80
2020/12/10 04:03:59;;;;;;;11.98;7.65;;;3.50;99.90;;;;;;4909293;28;87926;-80
2020/12/10 04:06:25;;;;;;;12.27;9.02;;;3.70;99.90;;;;;;4892685;28;86874;-80
2020/12/10 04:08:51;;;;;;;13.75;8.35;;;3.50;99.90;;;;;;4892053;28;87234;-81
2020/12/10 04:11:17;;;;;;;12.20;7.72;;;3.50;99.90;;;;;;4892851;28;87887;-81
2020/12/10 04:13:43;;;;;;;13.25;8.90;;;3.30;99.90;;;;;;4893626;28;86523;-80
2020/12/10 04:16:09;;;;;;;15.85;8.73;;;3.40;99.90;;;;;;4930355;28;86796;-80
2020/12/10 04:18:42;;;;;;;13.70;8.10;;;3.40;99.90;;;;;;4937614;28;87275;-81
2020/12/10 04:21:10;;;;;;;15.60;8.48;;;3.40;99.90;;;;;;4921324;28;88042;-81
2020/12/10 04:23:35;;;;;;;12.13;8.45;;;3.50;99.90;;;;;;4924599;28;86871;-82
2020/12/10 04:26:04;;;;;;;13.05;8.15;;;3.40;99.90;;;;;;4934113;28;87084;-81
2020/12/10 04:28:31;;;;;;;12.85;9.57;;;3.10;99.90;;;;;;4906085;28;87941;-82
2020/12/10 04:30:57;;;;;;;16.20;9.95;;;3.60;99.90;;;;;;4906705;28;88162;-82
2020/12/10 04:33:22;;;;;;;16.70;9.15;;;3.30;99.90;;;;;;4896935;28;87163;-82
2020/12/10 04:35:48;;;;;;;13.75;9.02;;;3.40;99.90;;;;;;4894560;28;87012;-82
2020/12/10 04:38:14;;;;;;;16.02;8.90;;;3.40;99.90;;;;;;4926944;28;87111;-82
2020/12/10 04:40:40;;;;;;;13.63;8.07;;;3.40;99.90;;;;;;4910149;28;86896;-82
2020/12/10 04:43:09;;;;;;;13.25;7.60;;;3.40;99.90;;;;;;4890143;28;86564;-82
2020/12/10 04:45:34;;;;;;;13.23;7.72;;;3.40;99.90;;;;;;4890772;28;86203;-82
2020/12/10 04:48:01;;;;;;;15.75;10.43;;;3.60;99.90;;;;;;4891092;28;86951;-82
2020/12/10 04:50:29;;;;;;;16.38;10.00;;;3.40;99.90;;;;;;4882892;28;87094;-82
2020/12/10 04:52:56;;;;;;;15.40;9.55;;;3.40;99.90;;;;;;4887454;28;87940;-83
2020/12/10 04:55:23;;;;;;;16.42;10.75;;;3.70;99.90;;;;;;4874443;28;87566;-80
2020/12/10 04:57:52;;;;;;;16.50;10.45;;;3.60;99.90;;;;;;4876048;28;87328;-81
2020/12/10 05:00:19;;;;;;;18.73;11.15;;;3.60;99.90;;;;;;4889293;28;87014;-81
2020/12/10 05:02:47;;;;;;;15.65;9.43;;;3.50;99.90;;;;;;4875380;28;86420;-80
2020/12/10 05:05:28;;;;;;;19.40;10.38;;;3.50;99.90;;;;;;4882676;28;86973;-81
2020/12/10 05:07:56;;;;;;;22.00;11.13;;;3.60;99.90;;;;;;4868362;28;91155;-81
2020/12/10 05:10:22;;;;;;;18.85;10.68;;;3.60;99.90;;;;;;4887905;28;86693;-81
2020/12/10 05:12:48;;;;;;;20.83;10.88;;;3.60;99.90;;;;;;4888808;28;86878;-81
2020/12/10 05:15:29;;;;;;;21.75;11.60;;;3.60;99.90;;;;;;4881851;28;87017;-81
2020/12/10 05:18:10;;;;;;;22.52;11.35;;;3.60;99.90;;;;;;4880641;28;89151;-81
2020/12/10 05:20:44;;;;;;;14.43;7.72;;;3.60;99.90;;;;;;4875673;28;87560;-81
2020/12/10 05:23:10;;;;;;;18.60;9.88;;;3.60;99.90;;;;;;4889098;28;86859;-81
2020/12/10 05:25:46;;;;;;;20.60;11.70;;;3.60;99.90;;;;;;4879398;28;87066;-81
2020/12/10 05:28:12;;;;;;;24.13;13.13;;;3.60;99.90;;;;;;4875159;28;86989;-81
2020/12/10 05:30:38;;;;;;;20.05;11.73;;;3.60;99.90;;;;;;4877886;28;87205;-82
2020/12/10 05:33:12;;;;;;;21.83;12.63;;;3.50;99.90;;;;;;4869735;29;87024;-82
2020/12/10 05:35:38;;;;;;;19.30;10.73;;;3.40;99.90;;;;;;4853459;29;88571;-82
2020/12/10 05:38:12;;;;;;;22.08;12.52;;;3.40;99.90;;;;;;4879743;28;87485;-81
2020/12/10 05:40:40;;;;;;;20.95;11.70;;;3.40;99.90;;;;;;4875284;28;87285;-81
2020/12/10 05:43:07;;;;;;;20.20;11.70;;;3.30;99.90;;;;;;4885885;28;87787;-81
2020/12/10 05:45:38;;;;;;;21.85;12.50;;;3.30;99.90;;;;;;4881642;28;87020;-81
2020/12/10 05:48:05;;;;;;;22.52;13.63;;;3.50;99.90;;;;;;4899067;28;87567;-81
2020/12/10 05:50:33;;;;;;;22.38;13.27;;;3.00;99.90;;;;;;4908449;28;87458;-81
2020/12/10 05:53:05;;;;;;;18.77;10.73;;;3.40;99.90;;;;;;4903619;28;87186;-82
2020/12/10 05:55:32;;;;;;;22.90;12.68;;;3.30;99.90;;;;;;4906901;28;87006;-81
2020/12/10 05:58:00;;;;;;;28.33;15.07;;;3.30;99.90;;;;;;4912806;28;87198;-81
2020/12/10 06:00:25;;;;;;;28.15;14.88;;;3.30;99.90;;;;;;4896936;28;89054;-81
2020/12/10 06:02:53;;;;;;;24.67;12.88;;;3.30;99.90;;;;;;4906298;28;88058;-81
2020/12/10 06:05:19;;;;;;;22.70;12.68;;;3.30;99.90;;;;;;4909256;28;86617;-81
2020/12/10 06:08:04;;;;;;;26.55;14.00;;;3.30;99.90;;;;;;4912763;28;88031;-80
2020/12/10 06:10:42;;;;;;;22.23;12.00;;;3.30;99.90;;;;;;4907148;28;87964;-81
2020/12/10 06:13:09;;;;;;;25.15;12.35;;;3.30;99.90;;;;;;4904351;28;87281;-81
2020/12/10 06:15:37;;;;;;;22.88;12.93;;;3.30;99.90;;;;;;4904458;28;87145;-80
2020/12/10 06:18:15;;;;;;;22.13;12.75;;;3.30;99.90;;;;;;4906267;28;86623;-81
2020/12/10 06:20:47;;;;;;;25.05;13.10;;;3.40;99.90;;;;;;4901703;28;87470;-81
2020/12/10 06:23:32;;;;;;;27.27;13.32;;;3.40;99.90;;;;;;4906534;28;87452;-81
2020/12/10 06:26:00;;;;;;;22.05;11.93;;;3.30;99.90;;;;;;4886189;28;86492;-83
2020/12/10 06:28:26;;;;;;;24.75;12.80;;;3.30;99.90;;;;;;4906253;28;87665;-81
2020/12/10 06:31:04;;;;;;;24.95;14.38;;;3.40;99.90;;;;;;4904273;28;87932;-81
2020/12/10 06:33:46;;;;;;;22.00;12.63;;;3.40;99.90;;;;;;4907314;28;87963;-81
2020/12/10 06:36:26;;;;;;;24.58;14.15;;;3.40;99.90;;;;;;4905604;28;87356;-81
2020/12/10 06:38:53;;;;;;;24.13;14.05;;;3.70;99.90;;;;;;4906619;28;88166;-81
2020/12/10 06:41:19;;;;;;;24.60;14.07;;;3.30;99.90;;;;;;4901723;28;87211;-81
2020/12/10 06:43:45;;;;;;;27.95;16.13;;;3.40;99.90;;;;;;4905978;28;86720;-82
2020/12/10 06:46:11;;;;;;;26.42;13.82;;;3.40;99.90;;;;;;4909801;28;86994;-82
2020/12/10 06:48:48;;;;;;;24.85;15.07;;;3.40;99.90;;;;;;4914361;28;87470;-81
2020/12/10 06:51:19;;;;;;;27.58;14.15;;;3.40;99.90;;;;;;4908252;28;86551;-82
2020/12/10 06:54:00;;;;;;;30.30;16.17;;;3.50;99.90;;;;;;4908441;28;86981;-83
2020/12/10 06:56:29;;;;;;;25.50;14.30;;;3.40;99.90;;;;;;4908374;28;87036;-81
2020/12/10 06:59:01;;;;;;;24.67;14.65;;;3.30;99.90;;;;;;4907211;28;88988;-80
2020/12/10 07:01:27;;;;;;;24.33;13.95;;;3.40;99.90;;;;;;4907545;28;88877;-80
2020/12/10 07:04:18;;;;;;;29.42;15.75;;;3.40;99.90;;;;;;4896916;28;86919;-81
2020/12/10 07:06:45;;;;;;;23.30;14.50;;;3.60;99.90;;;;;;4902646;28;87082;-80
2020/12/10 07:09:16;;;;;;;24.08;13.48;;;3.30;99.90;;;;;;4907386;28;87626;-81
2020/12/10 07:11:43;;;;;;;26.70;14.65;;;3.30;99.90;;;;;;4906810;28;87136;-81
2020/12/10 07:14:33;;;;;;;28.85;15.10;;;3.30;99.90;;;;;;4909663;28;86972;-81
2020/12/10 07:17:02;;;;;;;30.08;16.15;;;3.20;99.90;;;;;;4904071;28;86465;-81
2020/12/10 07:19:28;;;;;;;28.25;14.52;;;3.30;99.90;;;;;;4906962;28;87236;-81
2020/12/10 07:21:53;;;;;;;30.20;15.85;;;3.30;99.90;;;;;;4906867;28;88125;-81
2020/12/10 07:24:19;;;;;;;29.58;15.98;;;3.20;99.90;;;;;;4908087;28;87578;-81
2020/12/10 07:26:45;;;;;;;27.10;15.38;;;2.80;99.90;;;;;;4905009;28;86291;-81
2020/12/10 07:29:11;;;;;;;28.45;14.00;;;3.10;99.90;;;;;;4907572;28;87022;-81
2020/12/10 07:31:37;;;;;;;25.80;14.00;;;3.10;99.90;;;;;;4905402;28;86898;-81
2020/12/10 07:34:03;;;;;;;26.05;15.55;;;3.40;99.90;;;;;;4909416;28;86833;-81
2020/12/10 07:36:31;;;;;;;28.35;14.50;;;3.20;99.90;;;;;;4907506;28;87685;-81
2020/12/10 07:38:58;;;;;;;30.10;17.20;;;3.30;99.90;;;;;;4910065;28;86939;-81
2020/12/10 07:41:24;;;;;;;30.52;18.35;;;3.30;99.90;;;;;;4909002;28;87935;-81
2020/12/10 07:43:53;;;;;;;37.15;19.52;;;3.40;99.90;;;;;;4909890;28;86748;-81
2020/12/10 07:46:19;;;;;;;37.40;20.58;;;3.60;99.90;;;;;;4908689;28;86895;-81
2020/12/10 07:48:48;;;;;;;34.15;18.58;;;3.50;99.90;;;;;;4909218;28;87596;-81
2020/12/10 07:51:21;;;;;;;34.22;18.67;;;3.60;99.90;;;;;;4909063;28;88456;-81
2020/12/10 07:53:47;;;;;;;36.00;18.40;;;3.60;99.90;;;;;;4909574;28;87059;-82
2020/12/10 07:56:22;;;;;;;32.63;17.92;;;3.50;99.90;;;;;;4908620;28;86501;-81
2020/12/10 07:58:51;;;;;;;33.10;16.75;;;3.80;99.90;;;;;;4909435;28;87579;-81
2020/12/10 08:01:18;;;;;;;32.05;14.35;;;3.80;99.90;;;;;;4909137;28;86957;-81
2020/12/10 08:03:53;;;;;;;31.02;16.80;;;4.50;99.90;;;;;;4908721;28;86909;-81
2020/12/10 08:06:19;;;;;;;26.35;14.48;;;4.00;99.90;;;;;;4909808;28;86147;-81
2020/12/10 08:08:49;;;;;;;26.00;14.02;;;4.20;99.90;;;;;;4908352;28;87164;-81
2020/12/10 08:11:19;;;;;;;26.30;14.95;;;4.30;99.90;;;;;;4892304;28;88743;-81
2020/12/10 08:13:58;;;;;;;23.63;13.15;;;4.40;99.90;;;;;;4906063;28;87989;-81
2020/12/10 08:16:34;;;;;;;21.80;13.52;;;4.70;99.90;;;;;;4899145;28;86538;-81
2020/12/10 08:19:13;;;;;;;22.67;13.68;;;4.90;99.90;;;;;;4906889;28;87091;-81
2020/12/10 08:21:39;;;;;;;35.17;18.58;;;4.80;99.90;;;;;;4909235;28;87797;-82
2020/12/10 08:24:05;;;;;;;38.65;20.60;;;5.00;99.90;;;;;;4903025;28;86748;-82
2020/12/10 08:26:31;;;;;;;33.03;15.68;;;5.00;99.90;;;;;;4903927;28;86691;-81
2020/12/10 08:28:57;;;;;;;24.77;13.95;;;5.10;99.90;;;;;;4907681;28;87203;-81
2020/12/10 08:31:28;;;;;;;24.98;13.88;;;5.30;99.90;;;;;;4905463;28;86289;-81
2020/12/10 08:33:55;;;;;;;23.33;13.02;;;5.10;99.90;;;;;;4899105;28;86907;-82
2020/12/10 08:36:24;;;;;;;19.98;11.55;;;5.20;99.90;;;;;;4898975;28;87203;-82
2020/12/10 08:38:54;;;;;;;19.42;12.57;;;5.40;99.90;;;;;;4908320;28;87825;-82
2020/12/10 08:41:28;;;;;;;20.00;12.13;;;5.50;99.90;;;;;;4898771;28;87359;-82
2020/12/10 08:43:58;;;;;;;18.88;12.73;;;5.60;98.60;;;;;;4900599;28;86813;-82
2020/12/10 08:46:24;;;;;;;18.30;11.35;;;5.70;97.00;;;;;;4905008;28;86910;-81
2020/12/10 08:48:50;;;;;;;18.85;11.57;;;5.80;95.00;;;;;;4896091;28;87023;-82
2020/12/10 08:51:16;;;;;;;17.88;10.80;;;5.90;94.90;;;;;;4893265;28;87018;-82
2020/12/10 08:53:49;;;;;;;19.25;12.07;;;6.10;92.30;;;;;;4906964;28;86776;-82
2020/12/10 08:56:34;;;;;;;20.90;12.40;;;6.00;92.10;;;;;;4905065;28;86185;-81
2020/12/10 08:58:59;;;;;;;19.70;11.95;;;6.00;92.30;;;;;;4907591;28;87039;-82
2020/12/10 09:01:25;;;;;;;14.70;10.75;;;6.10;92.70;;;;;;4901700;28;88082;-82
2020/12/10 09:03:51;;;;;;;14.10;9.25;;;6.10;90.70;;;;;;4907825;28;87971;-82
2020/12/10 09:06:16;;;;;;;15.25;9.23;;;6.10;90.50;;;;;;4903346;28;86527;-82
2020/12/10 09:08:42;;;;;;;14.10;9.18;;;6.30;90.10;;;;;;4897724;28;87171;-82
2020/12/10 09:11:08;;;;;;;14.88;10.13;;;6.40;87.00;;;;;;4895346;28;87505;-82
2020/12/10 09:13:34;;;;;;;13.95;8.70;;;6.90;88.40;;;;;;4909063;28;86329;-82
2020/12/10 09:16:00;;;;;;;14.18;9.77;;;7.40;85.90;;;;;;4893578;28;87023;-82
2020/12/10 09:18:25;;;;;;;13.82;9.50;;;8.00;83.50;;;;;;4898176;28;87252;-82
2020/12/10 09:20:53;;;;;;;16.10;10.82;;;8.80;79.00;;;;;;4900510;28;86879;-82
2020/12/10 09:23:18;;;;;;;15.25;10.55;;;9.40;75.60;;;;;;4907038;28;86635;-82
2020/12/10 09:25:44;;;;;;;14.00;9.93;;;10.10;71.90;;;;;;4892022;28;86881;-82
2020/12/10 09:28:10;;;;;;;13.13;9.18;;;10.80;71.00;;;;;;4908237;28;88184;-82
2020/12/10 09:30:37;;;;;;;14.55;9.13;;;11.40;66.90;;;;;;4909320;28;87309;-82
2020/12/10 09:33:04;;;;;;;13.07;8.73;;;12.00;63.80;;;;;;4906174;28;86729;-82
2020/12/10 09:35:29;;;;;;;10.43;8.07;;;12.40;62.90;;;;;;4908409;28;86938;-82
2020/12/10 09:37:55;;;;;;;13.38;8.85;;;12.80;60.60;;;;;;4908145;28;86917;-82
2020/12/10 09:40:21;;;;;;;9.70;8.07;;;13.40;59.80;;;;;;4909897;28;86964;-83
2020/12/10 09:42:47;;;;;;;10.40;8.75;;;13.80;56.90;;;;;;4910072;28;86907;-83
2020/12/10 09:45:17;;;;;;;11.13;8.40;;;14.10;56.70;;;;;;4909676;28;85944;-83
2020/12/10 09:47:47;;;;;;;9.52;7.50;;;14.30;54.80;;;;;;4906454;28;86944;-83
2020/12/10 09:50:21;;;;;;;9.63;7.13;;;14.00;54.30;;;;;;4908763;28;87460;-82
2020/12/10 09:53:10;;;;;;;9.88;8.43;;;13.90;52.30;;;;;;4909261;28;87879;-82
2020/12/10 09:58:14;;;;;;;11.20;8.27;;;12.80;54.70;;;;;;4905425;28;87235;-82
2020/12/10 10:00:39;;;;;;;10.75;8.23;;;12.40;56.50;;;;;;4908517;28;86892;-82
2020/12/10 10:03:06;;;;;;;11.57;8.18;;;12.20;55.70;;;;;;4908143;28;86944;-82
2020/12/10 10:05:35;;;;;;;10.25;8.13;;;12.00;57.00;;;;;;4910143;28;86482;-82
2020/12/10 10:08:01;;;;;;;9.70;7.55;;;11.70;57.20;;;;;;4909825;28;87787;-83
2020/12/10 10:10:27;;;;;;;10.40;6.95;;;11.50;57.10;;;;;;4906240;28;86195;-82
2020/12/10 10:12:53;;;;;;;7.38;6.45;;;11.70;56.90;;;;;;4900854;28;86957;-83
2020/12/10 10:15:20;;;;;;;8.27;6.78;;;11.70;56.20;;;;;;4901958;28;87649;-83
2020/12/10 10:17:46;;;;;;;8.02;6.82;;;11.90;57.10;;;;;;4909385;28;87534;-82
2020/12/10 10:20:11;;;;;;;7.50;6.38;;;12.20;56.80;;;;;;4899341;28;88272;-83
2020/12/10 10:22:40;;;;;;;7.43;6.32;;;12.30;56.30;;;;;;4903288;28;86989;-83
2020/12/10 10:25:07;;;;;;;7.88;6.72;;;12.40;55.90;;;;;;4909276;28;86810;-83
2020/12/10 10:27:33;;;;;;;7.35;6.25;;;12.50;55.30;;;;;;4910147;28;87240;-83
2020/12/10 10:29:58;;;;;;;8.15;6.40;;;12.60;54.50;;;;;;4909407;28;87201;-82
2020/12/10 10:32:24;;;;;;;6.78;5.97;;;12.60;54.70;;;;;;4909906;28;86827;-83
2020/12/10 10:34:51;;;;;;;7.45;6.18;;;12.50;54.20;;;;;;4910330;28;86197;-83
2020/12/10 10:37:16;;;;;;;7.68;6.50;;;12.30;54.00;;;;;;4909912;28;87247;-83
2020/12/10 10:39:42;;;;;;;6.85;5.97;;;12.20;55.20;;;;;;4908788;28;87063;-83
2020/12/10 10:42:08;;;;;;;7.93;6.45;;;11.60;54.40;;;;;;4910075;28;87633;-83
2020/12/10 10:44:33;;;;;;;7.05;6.03;;;11.40;55.20;;;;;;4909600;28;87073;-83
2020/12/10 10:46:59;;;;;;;8.13;7.00;;;11.70;56.10;;;;;;4908948;28;86586;-83
2020/12/10 10:49:25;;;;;;;8.05;7.10;;;12.10;54.20;;;;;;4909455;28;87378;-83
2020/12/10 10:51:51;;;;;;;8.55;7.13;;;12.10;54.40;;;;;;4910122;28;86451;-83
2020/12/10 10:54:17;;;;;;;11.30;7.88;;;12.20;54.20;;;;;;4912022;28;87029;-83
2020/12/10 10:56:42;;;;;;;10.07;7.47;;;11.90;55.00;;;;;;4912729;28;87530;-83
2020/12/10 10:59:08;;;;;;;11.43;7.85;;;11.50;56.30;;;;;;4912440;28;86219;-83
2020/12/10 11:01:34;;;;;;;14.30;8.75;;;11.20;57.60;;;;;;4912300;28;86889;-82
2020/12/10 11:04:00;;;;;;;12.85;8.57;;;11.00;58.30;;;;;;4909761;28;87038;-82
2020/12/10 11:06:26;;;;;;;12.38;8.30;;;10.90;59.40;;;;;;4905225;28;88265;-81
2020/12/10 11:08:51;;;;;;;11.32;8.80;;;10.70;59.10;;;;;;4910798;28;87184;-82
2020/12/10 11:11:18;;;;;;;9.90;7.75;;;10.60;59.90;;;;;;4910886;28;86638;-82
2020/12/10 11:13:44;;;;;;;12.20;8.57;;;10.40;60.30;;;;;;4908732;28;86961;-83
2020/12/10 11:16:10;;;;;;;11.00;8.40;;;10.10;59.70;;;;;;4905483;28;87185;-83
2020/12/10 11:18:36;;;;;;;10.73;8.23;;;9.90;61.20;;;;;;4904925;28;87280;-82
2020/12/10 11:21:01;;;;;;;10.93;8.10;;;9.90;61.90;;;;;;4910193;28;86922;-82
2020/12/10 11:23:27;;;;;;;9.82;7.15;;;9.90;60.80;;;;;;4908286;28;86158;-82
2020/12/10 11:25:53;;;;;;;9.90;7.72;;;10.00;60.90;;;;;;4907641;28;87989;-82
2020/12/10 11:28:18;;;;;;;9.18;6.78;;;10.00;60.60;;;;;;4908501;28;87021;-83
2020/12/10 11:30:44;;;;;;;10.68;7.72;;;10.00;60.90;;;;;;4911844;28;87992;-85
2020/12/10 11:33:10;;;;;;;9.35;6.75;;;9.90;61.00;;;;;;4908871;28;86210;-84
2020/12/10 11:35:35;;;;;;;12.15;7.60;;;9.90;61.30;;;;;;4902493;28;88540;-85
2020/12/10 11:38:01;;;;;;;9.88;6.38;;;9.70;61.30;;;;;;4902838;28;87600;-85
2020/12/10 11:40:27;;;;;;;8.70;7.15;;;9.60;61.80;;;;;;4905160;28;86926;-85
2020/12/10 11:42:53;;;;;;;10.20;7.20;;;9.50;62.20;;;;;;4903873;28;86840;-84
2020/12/10 11:45:19;;;;;;;9.95;7.38;;;9.30;62.60;;;;;;4907512;28;86989;-85
2020/12/10 11:47:51;;;;;;;9.05;6.75;;;9.10;63.10;;;;;;4907679;28;86927;-85
2020/12/10 11:50:20;;;;;;;10.15;7.88;;;8.90;63.30;;;;;;4910672;28;86867;-82
2020/12/10 11:52:50;;;;;;;11.47;8.20;;;8.90;64.10;;;;;;4908119;28;88034;-83
2020/12/10 11:55:16;;;;;;;9.85;7.72;;;8.70;64.00;;;;;;4907434;28;87849;-83
2020/12/10 11:57:42;;;;;;;12.02;8.15;;;8.60;64.70;;;;;;4909494;28;87081;-82
2020/12/10 12:00:09;;;;;;;9.52;7.75;;;8.50;65.10;;;;;;4904989;28;87051;-82
2020/12/10 12:02:36;;;;;;;10.02;7.18;;;8.40;65.50;;;;;;4886942;28;87250;-83
2020/12/10 12:05:02;;;;;;;10.18;7.55;;;8.20;65.80;;;;;;4910726;28;87124;-83
2020/12/10 12:07:28;;;;;;;8.80;6.13;;;8.10;66.10;;;;;;4905168;28;86984;-82
2020/12/10 12:09:56;;;;;;;11.20;8.32;;;8.00;66.00;;;;;;4909838;28;86945;-82
2020/12/10 12:12:22;;;;;;;9.10;7.13;;;8.00;66.80;;;;;;4910785;28;85918;-82
2020/12/10 12:14:48;;;;;;;11.00;7.15;;;7.90;66.90;;;;;;4916247;28;87740;-82
2020/12/10 12:17:13;;;;;;;8.98;7.18;;;7.80;65.90;;;;;;4916202;28;86814;-83
2020/12/10 12:19:39;;;;;;;10.40;8.02;;;7.70;64.80;;;;;;4913386;28;87690;-83
2020/12/10 12:22:05;;;;;;;9.13;7.65;;;7.60;65.30;;;;;;4914734;28;87004;-83
2020/12/10 12:24:30;;;;;;;9.32;6.47;;;7.40;66.70;;;;;;4918762;28;87781;-83
2020/12/10 12:26:56;;;;;;;10.10;7.22;;;7.40;67.40;;;;;;4914536;28;86552;-82
2020/12/10 12:29:22;;;;;;;9.82;8.00;;;7.30;67.90;;;;;;4922572;28;86475;-85
2020/12/10 12:31:47;;;;;;;9.18;7.68;;;7.30;68.20;;;;;;4894258;28;87150;-83
2020/12/10 12:34:13;;;;;;;12.85;8.65;;;7.20;68.40;;;;;;4909646;28;88334;-83
2020/12/10 12:36:39;;;;;;;12.38;9.38;;;7.10;69.00;;;;;;4911447;28;87125;-83
2020/12/10 12:39:06;;;;;;;10.60;7.68;;;7.00;69.00;;;;;;4910937;28;86959;-81
2020/12/10 12:41:33;;;;;;;12.98;8.77;;;7.00;69.80;;;;;;4909889;28;86771;-82
2020/12/10 12:43:59;;;;;;;10.30;7.88;;;7.00;70.30;;;;;;4905070;28;87853;-82
2020/12/10 12:46:26;;;;;;;11.45;8.23;;;7.00;69.60;;;;;;4908974;28;87148;-82
2020/12/10 12:48:52;;;;;;;10.15;7.57;;;6.90;69.30;;;;;;4898749;28;86700;-82
2020/12/10 12:51:19;;;;;;;9.48;7.70;;;6.80;69.40;;;;;;4910294;28;87163;-82
2020/12/10 12:53:46;;;;;;;10.93;8.23;;;6.80;69.90;;;;;;4911560;28;86742;-82
2020/12/10 12:56:13;;;;;;;10.88;8.07;;;6.80;70.20;;;;;;4907291;28;86982;-82
2020/12/10 12:58:40;;;;;;;10.05;6.20;;;6.80;69.60;;;;;;4905420;28;87048;-81
2020/12/10 13:01:05;;;;;;;12.02;8.20;;;6.80;70.30;;;;;;4906915;28;86316;-82
2020/12/10 13:03:31;;;;;;;10.65;7.82;;;6.80;70.80;;;;;;4905002;28;88206;-82
2020/12/10 13:05:57;;;;;;;10.93;8.60;;;6.80;70.00;;;;;;4915881;28;87534;-81
2020/12/10 13:08:22;;;;;;;12.65;9.18;;;6.80;70.20;;;;;;4915449;28;87828;-81
2020/12/10 13:10:48;;;;;;;10.50;8.35;;;6.80;69.50;;;;;;4912847;28;86881;-81
2020/12/10 13:13:15;;;;;;;11.18;8.43;;;6.80;69.70;;;;;;4915961;28;87287;-81
2020/12/10 13:15:41;;;;;;;11.70;8.07;;;6.70;69.90;;;;;;4910900;28;86912;-81
2020/12/10 13:18:10;;;;;;;10.50;7.93;;;6.80;69.40;;;;;;4919634;28;86836;-81
2020/12/10 13:20:37;;;;;;;9.52;7.80;;;6.70;69.90;;;;;;4919921;28;86228;-81
2020/12/10 13:23:03;;;;;;;11.80;8.48;;;6.70;71.00;;;;;;4925613;28;86805;-81
2020/12/10 13:25:28;;;;;;;11.07;8.48;;;6.70;72.00;;;;;;4924802;28;86152;-81
2020/12/10 13:27:54;;;;;;;11.15;7.90;;;6.60;71.90;;;;;;4926695;28;86697;-81
2020/12/10 13:30:20;;;;;;;10.77;8.23;;;6.60;72.10;;;;;;4930113;28;86400;-81
2020/12/10 13:32:45;;;;;;;10.35;8.27;;;6.60;72.30;;;;;;4917871;28;88238;-81
2020/12/10 13:35:15;;;;;;;10.95;8.52;;;6.60;72.70;;;;;;4910555;28;87040;-81
2020/12/10 13:37:41;;;;;;;12.77;9.52;;;6.60;72.90;;;;;;4911318;28;86858;-81
2020/12/10 13:40:07;;;;;;;11.10;8.70;;;6.60;73.10;;;;;;4910366;28;86623;-81
2020/12/10 13:42:34;;;;;;;12.95;8.13;;;6.50;72.40;;;;;;4910146;28;86849;-81
2020/12/10 13:45:02;;;;;;;9.65;7.30;;;6.50;73.40;;;;;;4914617;28;88377;-81
2020/12/10 13:47:31;;;;;;;12.35;8.43;;;6.60;73.20;;;;;;4909193;28;86970;-81
2020/12/10 13:49:58;;;;;;;10.50;8.48;;;6.60;73.20;;;;;;4906480;28;86338;-82
2020/12/10 13:52:27;;;;;;;11.10;8.55;;;6.60;73.00;;;;;;4917716;28;87278;-82
2020/12/10 13:54:53;;;;;;;12.77;8.38;;;6.60;73.00;;;;;;4908833;28;87010;-82
2020/12/10 13:57:19;;;;;;;12.60;8.30;;;6.60;75.40;;;;;;4916762;28;87888;-82
2020/12/10 13:59:45;;;;;;;11.02;8.90;;;6.60;75.10;;;;;;4909909;28;87018;-82
2020/12/10 14:02:11;;;;;;;13.68;10.32;;;6.70;74.50;;;;;;4911888;28;87366;-81
2020/12/10 14:04:36;;;;;;;12.80;8.38;;;6.60;73.70;;;;;;4913063;28;87560;-82
2020/12/10 14:07:02;;;;;;;13.63;7.97;;;6.50;73.80;;;;;;4912094;28;86895;-81
2020/12/10 14:09:29;;;;;;;11.90;7.28;;;6.50;73.50;;;;;;4907875;28;86921;-82
2020/12/10 14:11:58;;;;;;;14.35;9.32;;;6.40;73.60;;;;;;4912613;28;87666;-82
2020/12/10 14:14:24;;;;;;;11.77;7.95;;;6.30;74.30;;;;;;4908274;28;86412;-81
2020/12/10 14:16:50;;;;;;;10.10;7.72;;;6.20;75.40;;;;;;4911878;28;87278;-81
2020/12/10 14:19:15;;;;;;;9.80;6.97;;;6.10;74.60;;;;;;4913529;28;86850;-81
2020/12/10 14:21:41;;;;;;;10.10;6.97;;;6.00;74.90;;;;;;4911501;28;88655;-82
2020/12/10 14:24:07;;;;;;;9.23;6.50;;;6.00;75.70;;;;;;4908312;28;87854;-81
2020/12/10 14:26:33;;;;;;;12.82;7.50;;;5.90;76.90;;;;;;4910628;28;86888;-82
2020/12/10 14:28:58;;;;;;;9.45;7.05;;;5.90;76.20;;;;;;4907369;28;87311;-82
2020/12/10 14:31:24;;;;;;;10.63;7.53;;;5.90;76.10;;;;;;4920938;28;88031;-82
2020/12/10 14:33:50;;;;;;;9.27;6.72;;;5.80;76.50;;;;;;4916281;28;87083;-82
2020/12/10 14:36:16;;;;;;;9.52;6.95;;;5.80;77.10;;;;;;4911312;28;86574;-81
2020/12/10 14:38:42;;;;;;;9.32;7.32;;;5.80;77.60;;;;;;4911919;28;86016;-81
2020/12/10 14:41:13;;;;;;;10.98;7.80;;;5.80;77.40;;;;;;4911020;28;86949;-82
2020/12/10 14:43:39;;;;;;;;;;;5.70;77.30;;;;;;4917340;28;87548;-82
2020/12/10 14:46:04;;;;;;;10.80;7.45;;;5.70;77.90;;;;;;4912854;28;87200;-81
2020/12/10 14:48:31;;;;;;;10.43;7.25;;;5.60;78.30;;;;;;4910275;28;87036;-81
2020/12/10 14:50:57;;;;;;;10.65;7.80;;;5.70;79.00;;;;;;4916597;28;87155;-82
2020/12/10 14:53:23;;;;;;;11.57;7.43;;;5.60;79.00;;;;;;4920567;28;88967;-82
2020/12/10 14:55:48;;;;;;;12.82;7.70;;;5.60;78.30;;;;;;4912134;28;86876;-81
2020/12/10 14:58:14;;;;;;;9.63;7.43;;;5.60;78.90;;;;;;4919221;28;87648;-80
2020/12/10 15:00:42;;;;;;;12.55;8.52;;;5.50;80.00;;;;;;4910481;28;87648;-83
2020/12/10 15:03:10;;;;;;;13.90;7.45;;;5.60;79.90;;;;;;4892073;28;87306;-81
2020/12/10 15:05:37;;;;;;;11.15;8.07;;;5.60;79.80;;;;;;4905322;28;87132;-82
2020/12/10 15:08:03;;;;;;;17.67;7.90;;;5.50;79.60;;;;;;4907199;28;86691;-83
2020/12/10 15:10:29;;;;;;;16.48;8.13;;;5.50;79.90;;;;;;4908213;28;88187;-83
2020/12/10 15:12:55;;;;;;;16.98;8.52;;;5.50;80.60;;;;;;4909102;28;87114;-84
2020/12/10 15:15:20;;;;;;;16.80;9.00;;;5.50;80.60;;;;;;4911727;28;87053;-84
2020/12/10 15:17:46;;;;;;;16.50;8.43;;;5.40;79.80;;;;;;4907252;28;87052;-84
2020/12/10 15:20:12;;;;;;;12.55;7.60;;;5.40;80.20;;;;;;4908234;28;87721;-84
2020/12/10 15:22:38;;;;;;;11.63;7.70;;;5.40;81.50;;;;;;4900299;28;86674;-84
2020/12/10 15:25:04;;;;;;;12.45;8.63;;;5.20;79.80;;;;;;4909123;28;86659;-84
2020/12/10 15:27:30;;;;;;;12.75;7.45;;;5.30;80.30;;;;;;4910959;28;86238;-84
2020/12/10 15:29:55;;;;;;;14.15;8.30;;;5.30;80.20;;;;;;4912920;28;87661;-83
2020/12/10 15:32:22;;;;;;;11.48;9.10;;;5.10;80.40;;;;;;4910380;28;86983;-84
2020/12/10 15:34:47;;;;;;;14.38;8.32;;;5.30;80.70;;;;;;4909310;28;88626;-84
2020/12/10 15:37:13;;;;;;;14.65;9.07;;;5.30;80.90;;;;;;4906309;28;87059;-83
2020/12/10 15:39:39;;;;;;;14.48;9.93;;;5.40;82.20;;;;;;4911792;28;88168;-84
2020/12/10 15:42:06;;;;;;;16.40;11.05;;;5.20;82.00;;;;;;4902613;28;86949;-83
2020/12/10 15:44:31;;;;;;;15.43;10.05;;;5.20;81.30;;;;;;4903891;28;87125;-83
2020/12/10 15:46:57;;;;;;;16.77;10.38;;;5.20;81.40;;;;;;4909115;28;87077;-84
2020/12/10 15:49:23;;;;;;;13.65;9.70;;;5.20;81.30;;;;;;4910192;28;87276;-84
2020/12/10 15:51:54;;;;;;;15.95;10.95;;;5.20;81.60;;;;;;4913687;28;86402;-84
2020/12/10 15:54:20;;;;;;;15.55;10.10;;;5.10;81.50;;;;;;4892787;28;87119;-84
2020/12/10 15:56:46;;;;;;;18.73;12.00;;;5.10;81.80;;;;;;4910598;28;86860;-83
2020/12/10 15:59:12;;;;;;;16.10;10.35;;;5.10;82.30;;;;;;4893189;28;90038;-85
2020/12/10 16:01:38;;;;;;;15.15;9.55;;;5.10;82.50;;;;;;4915391;28;87181;-84
2020/12/10 16:04:04;;;;;;;11.68;9.23;;;5.10;82.50;;;;;;4916688;28;87116;-84
2020/12/10 16:06:30;;;;;;;15.05;9.32;;;5.10;83.10;;;;;;4917944;28;86996;-83
2020/12/10 16:08:57;;;;;;;12.48;8.60;;;5.10;82.40;;;;;;4918367;28;87661;-84
2020/12/10 16:11:23;;;;;;;12.40;8.27;;;5.10;81.90;;;;;;4920166;28;86714;-84
2020/12/10 16:13:49;;;;;;;11.50;8.80;;;5.10;82.30;;;;;;4911470;28;87080;-84
2020/12/10 16:16:15;;;;;;;12.98;8.73;;;5.10;82.30;;;;;;4917338;28;86083;-83
2020/12/10 16:18:41;;;;;;;9.95;7.90;;;5.00;82.20;;;;;;4910235;28;87244;-84
2020/12/10 16:21:08;;;;;;;9.95;7.88;;;5.00;82.70;;;;;;4910578;28;87355;-84
2020/12/10 16:23:34;;;;;;;10.80;7.80;;;5.00;84.40;;;;;;4919037;28;87149;-84
2020/12/10 16:26:00;;;;;;;10.48;7.90;;;5.10;84.10;;;;;;4922138;28;86975;-84
2020/12/10 16:28:27;;;;;;;12.52;8.18;;;5.00;84.00;;;;;;4913989;28;86929;-84
2020/12/10 16:30:52;;;;;;;10.75;7.55;;;5.00;84.20;;;;;;4917220;28;87206;-84
2020/12/10 16:33:18;;;;;;;10.15;7.75;;;5.00;84.60;;;;;;4909824;28;86521;-84